^^
Station Historical Data
Daily Summary for February 9, 2018 Units:  English    Metric   Both
« Previous Day
Next Day »
Daily Weekly Monthly Yearly Custom
  High: Low: Average:
Temperature: TemperatureF °F 60.6 °F 67.2 °F
Dew Point: DewpointF °F 53.2 °F 58.5 °F
Humidity: Humidity% 36% 77%
Wind Speed: WindSpeedMPHmph 0.0mph 1.4mph
Wind Gust: WindSpeedGustMPHmph - -
Wind- - SE
Pressure: PressureIn in 29.63 in -
Precipitation: 0.56 in    
Historical Graphs
 
 
Tabular Data for February 9, 2018
Time Temperature Dew Point Pressure Wind Wind Speed Wind Gust Humidity Rainfall Rate (Hourly) solar Conditions
TemperatureF °F DewpointF °F PressureIn in Calm     Humidity% HourlyPrecipIn in SolarRadiationWatts/m^2 W/m2 Conditions
00:01 67.5 °F 60.4 °F 29.67 in Calm   1.0 mph 78% 0.00 in 0.0 W/m2
00:06 67.3 °F 60.3 °F 29.68 in Calm     78% 0.00 in 0.0 W/m2
00:12 66.9 °F 59.9 °F 29.68 in Calm     78% 0.00 in 0.0 W/m2
00:17 66.9 °F 60.3 °F 29.68 in Calm   1.0 mph 79% 0.00 in 0.0 W/m2
00:22 66.7 °F 60.4 °F 29.68 in Calm   1.0 mph 80% 0.00 in 0.0 W/m2
00:27 66.6 °F 60.3 °F 29.67 in Calm   1.0 mph 80% 0.00 in 0.0 W/m2
00:32 66.4 °F 60.4 °F 29.67 in Calm   1.0 mph 81% 0.00 in 0.0 W/m2
00:37 66.4 °F 60.4 °F 29.67 in East 0.9 mph 3.0 mph 81% 0.00 in 0.0 W/m2
00:42 66.4 °F 60.4 °F 29.67 in Calm   1.0 mph 81% 0.00 in 0.0 W/m2
00:47 66.2 °F 60.3 °F 29.67 in Calm     81% 0.00 in 0.0 W/m2
00:53 66.0 °F 60.4 °F 29.67 in Calm   1.0 mph 82% 0.00 in 0.0 W/m2
00:58 66.0 °F 60.4 °F 29.67 in Calm     82% 0.00 in 0.0 W/m2
01:03 65.8 °F 60.3 °F 29.67 in Calm     82% 0.00 in 0.0 W/m2
01:08 65.8 °F 60.3 °F 29.67 in Calm     82% 0.00 in 0.0 W/m2
01:13 65.7 °F 60.1 °F 29.67 in Calm   2.0 mph 82% 0.00 in 0.0 W/m2
01:18 65.7 °F 60.1 °F 29.67 in ENE 0.9 mph 3.0 mph 82% 0.00 in 0.0 W/m2
01:23 65.7 °F 60.1 °F 29.66 in Calm   1.0 mph 82% 0.00 in 0.0 W/m2
01:28 65.7 °F 60.1 °F 29.66 in Calm     82% 0.00 in 0.0 W/m2
01:33 65.7 °F 60.1 °F 29.66 in Calm   1.0 mph 82% 0.00 in 0.0 W/m2
01:39 65.8 °F 60.3 °F 29.66 in Calm   3.0 mph 82% 0.00 in 0.0 W/m2
01:44 65.8 °F 59.9 °F 29.67 in NE 2.0 mph 3.0 mph 81% 0.00 in 0.0 W/m2
01:49 65.8 °F 60.3 °F 29.67 in NE 2.9 mph 7.0 mph 82% 0.00 in 0.0 W/m2
01:54 65.8 °F 60.6 °F 29.66 in Calm   3.0 mph 83% 0.00 in 0.0 W/m2
01:59 65.8 °F 60.6 °F 29.66 in Calm   2.0 mph 83% 0.00 in 0.0 W/m2
02:04 65.8 °F 60.6 °F 29.66 in Calm   3.0 mph 83% 0.00 in 0.0 W/m2
02:09 65.8 °F 60.3 °F 29.67 in Calm   1.0 mph 82% 0.00 in 0.0 W/m2
02:14 65.8 °F 59.5 °F 29.67 in SSE 0.9 mph 2.0 mph 80% 0.00 in 0.0 W/m2
02:19 66.0 °F 59.0 °F 29.67 in SE 0.9 mph 4.0 mph 78% 0.00 in 0.0 W/m2
02:24 66.4 °F 58.6 °F 29.67 in SE 4.0 mph 7.0 mph 76% 0.00 in 0.0 W/m2
02:30 66.6 °F 57.6 °F 29.67 in SSE 4.9 mph 10.0 mph 73% 0.00 in 0.0 W/m2
02:35 66.6 °F 58.8 °F 29.66 in Calm   3.0 mph 76% 0.00 in 0.0 W/m2
02:40 66.0 °F 58.6 °F 29.66 in Calm   4.0 mph 77% 0.00 in 0.0 W/m2
02:45 65.7 °F 59.0 °F 29.67 in Calm   3.0 mph 79% 0.01 in 0.0 W/m2
02:50 65.3 °F 59.7 °F 29.67 in SE 0.9 mph 3.0 mph 82% 0.01 in 0.0 W/m2
02:55 64.8 °F 59.5 °F 29.67 in SE 2.9 mph 5.0 mph 83% 0.02 in 0.0 W/m2
03:00 64.2 °F 59.4 °F 29.67 in SSE 4.0 mph 8.0 mph 84% 0.02 in 0.0 W/m2
03:05 63.7 °F 58.8 °F 29.67 in ESE 2.0 mph 7.0 mph 84% 0.02 in 0.0 W/m2
03:10 63.3 °F 58.5 °F 29.67 in SE 4.0 mph 6.0 mph 84% 0.02 in 0.0 W/m2
03:16 63.1 °F 58.6 °F 29.67 in East 0.9 mph 2.0 mph 85% 0.02 in 0.0 W/m2
03:21 63.0 °F 58.6 °F 29.67 in SE 2.0 mph 2.0 mph 86% 0.02 in 0.0 W/m2
03:26 63.0 °F 58.6 °F 29.67 in SSE 2.9 mph 4.0 mph 86% 0.02 in 0.0 W/m2
03:31 63.0 °F 58.6 °F 29.67 in SE 4.0 mph 7.0 mph 86% 0.02 in 0.0 W/m2
03:36 63.1 °F 59.2 °F 29.66 in ESE 0.9 mph 5.0 mph 87% 0.03 in 0.0 W/m2
03:41 63.0 °F 59.4 °F 29.67 in ESE 2.9 mph 7.0 mph 88% 0.03 in 0.0 W/m2
03:46 63.1 °F 59.5 °F 29.67 in SE 6.9 mph 7.0 mph 88% 0.02 in 0.0 W/m2
03:51 63.3 °F 59.7 °F 29.67 in ESE 4.0 mph 6.0 mph 88% 0.02 in 0.0 W/m2
03:56 63.5 °F 59.9 °F 29.68 in SSE 0.9 mph 5.0 mph 88% 0.02 in 0.0 W/m2
04:02 63.7 °F 60.4 °F 29.68 in SE 0.9 mph 3.0 mph 89% 0.02 in 0.0 W/m2
04:07 63.5 °F 60.3 °F 29.68 in Calm   1.0 mph 89% 0.03 in 0.0 W/m2
04:12 63.3 °F 60.1 °F 29.69 in Calm   1.0 mph 89% 0.03 in 0.0 W/m2
04:17 63.3 °F 60.1 °F 29.69 in Calm     89% 0.03 in 0.0 W/m2
04:22 63.3 °F 60.3 °F 29.69 in NE 0.9 mph 1.0 mph 90% 0.04 in 0.0 W/m2
04:27 63.3 °F 60.6 °F 29.69 in NNE 2.0 mph 3.0 mph 91% 0.05 in 0.0 W/m2
04:32 63.3 °F 60.6 °F 29.69 in Calm   3.0 mph 91% 0.06 in 0.0 W/m2
04:37 63.3 °F 60.6 °F 29.68 in ENE 2.0 mph 2.0 mph 91% 0.06 in 0.0 W/m2
04:42 63.1 °F 60.4 °F 29.68 in NE 0.9 mph 4.0 mph 91% 0.06 in 0.0 W/m2
04:48 63.1 °F 60.4 °F 29.68 in ENE 4.0 mph 4.0 mph 91% 0.08 in 0.0 W/m2
04:53 63.0 °F 60.3 °F 29.69 in NNE 4.0 mph 4.0 mph 91% 0.08 in 0.0 W/m2
04:58 62.8 °F 60.1 °F 29.69 in Calm   3.0 mph 91% 0.09 in 0.0 W/m2
05:03 62.8 °F 60.1 °F 29.69 in Calm   5.0 mph 91% 0.08 in 0.0 W/m2
05:08 62.4 °F 59.4 °F 29.69 in Calm   1.0 mph 90% 0.09 in 0.0 W/m2
05:13 62.2 °F 59.5 °F 29.69 in Calm   2.0 mph 91% 0.09 in 0.0 W/m2
05:18 62.2 °F 59.9 °F 29.69 in SE 2.0 mph 2.0 mph 92% 0.10 in 0.0 W/m2
05:23 62.4 °F 60.1 °F 29.68 in Calm   1.0 mph 92% 0.09 in 0.0 W/m2
05:28 62.4 °F 60.1 °F 29.69 in ESE 0.9 mph 2.0 mph 92% 0.09 in 0.0 W/m2
05:33 62.4 °F 60.1 °F 29.68 in Calm     92% 0.09 in 0.0 W/m2
05:39 62.4 °F 60.1 °F 29.68 in ENE 0.9 mph 2.0 mph 92% 0.08 in 0.0 W/m2
05:44 62.4 °F 60.4 °F 29.68 in NE 0.9 mph 2.0 mph 93% 0.07 in 0.0 W/m2
05:49 62.4 °F 60.1 °F 29.68 in Calm     92% 0.07 in 0.0 W/m2
05:54 62.2 °F 59.9 °F 29.67 in Calm   1.0 mph 92% 0.09 in 0.0 W/m2
05:59 62.1 °F 59.7 °F 29.67 in Calm     92% 0.09 in 0.0 W/m2
06:04 62.1 °F 59.7 °F 29.67 in Calm     92% 0.09 in 0.0 W/m2
06:09 62.1 °F 59.7 °F 29.67 in Calm     92% 0.08 in 0.0 W/m2
06:14 62.1 °F 59.7 °F 29.67 in Calm   2.0 mph 92% 0.07 in 0.0 W/m2
06:20 62.1 °F 60.1 °F 29.67 in Calm   2.0 mph 93% 0.06 in 0.0 W/m2
06:25 62.1 °F 60.1 °F 29.67 in Calm   2.0 mph 93% 0.06 in 0.0 W/m2
06:30 62.1 °F 60.1 °F 29.68 in Calm   3.0 mph 93% 0.06 in 0.0 W/m2
06:35 62.1 °F 60.1 °F 29.68 in Calm   2.0 mph 93% 0.05 in 0.0 W/m2
06:40 62.1 °F 60.1 °F 29.68 in Calm   4.0 mph 93% 0.05 in 0.0 W/m2
06:45 62.1 °F 60.1 °F 29.68 in Calm   2.0 mph 93% 0.05 in 0.0 W/m2
06:50 62.1 °F 60.1 °F 29.68 in Calm     93% 0.03 in 0.0 W/m2
06:56 61.9 °F 59.9 °F 29.68 in North 0.9 mph 3.0 mph 93% 0.02 in 0.0 W/m2
07:01 61.9 °F 59.9 °F 29.68 in NE 4.0 mph 5.0 mph 93% 0.01 in 0.0 W/m2
07:06 61.5 °F 59.2 °F 29.69 in NNE 2.0 mph 4.0 mph 92% 0.00 in 5.0 W/m2
07:11 61.2 °F 58.5 °F 29.70 in Calm   2.0 mph 91% 0.00 in 5.0 W/m2
07:16 61.2 °F 58.5 °F 29.70 in Calm     91% 0.00 in 5.0 W/m2
07:21 61.2 °F 58.8 °F 29.70 in Calm   1.0 mph 92% 0.00 in 5.0 W/m2
07:26 61.2 °F 58.8 °F 29.70 in North 0.9 mph 3.0 mph 92% 0.00 in 9.0 W/m2
07:31 61.3 °F 59.4 °F 29.70 in Calm     93% 0.00 in 14.0 W/m2
07:37 61.3 °F 59.4 °F 29.71 in Calm     93% 0.00 in 21.0 W/m2
07:42 61.3 °F 59.4 °F 29.71 in Calm     93% 0.00 in 28.0 W/m2
07:47 61.5 °F 59.5 °F 29.71 in Calm   1.0 mph 93% 0.00 in 35.0 W/m2
07:52 61.5 °F 59.5 °F 29.71 in Calm     93% 0.00 in 47.0 W/m2
07:57 61.7 °F 59.7 °F 29.71 in Calm     93% 0.00 in 54.0 W/m2
08:02 61.9 °F 59.9 °F 29.71 in Calm     93% 0.00 in 67.0 W/m2
08:07 61.9 °F 59.9 °F 29.70 in Calm   1.0 mph 93% 0.00 in 72.0 W/m2
08:12 62.1 °F 60.1 °F 29.71 in Calm     93% 0.00 in 74.0 W/m2
08:18 62.1 °F 59.7 °F 29.71 in Calm     92% 0.00 in 72.0 W/m2
08:23 62.2 °F 60.3 °F 29.71 in Calm   1.0 mph 93% 0.00 in 83.0 W/m2
08:28 62.4 °F 59.7 °F 29.71 in Calm   2.0 mph 91% 0.00 in 107.0 W/m2
08:33 62.4 °F 59.7 °F 29.71 in Calm   2.0 mph 91% 0.00 in 125.0 W/m2
08:38 62.4 °F 59.2 °F 29.71 in Calm     89% 0.00 in 144.0 W/m2
08:43 62.4 °F 59.2 °F 29.71 in Calm     89% 0.00 in 134.0 W/m2
08:48 62.8 °F 59.5 °F 29.71 in Calm   1.0 mph 89% 0.00 in 179.0 W/m2
08:53 63.0 °F 59.0 °F 29.71 in Calm   1.0 mph 87% 0.00 in 195.0 W/m2
08:58 63.1 °F 59.5 °F 29.71 in SSE 0.9 mph 2.0 mph 88% 0.00 in 156.0 W/m2
09:04 63.3 °F 59.7 °F 29.71 in SSE 0.9 mph 2.0 mph 88% 0.00 in 146.0 W/m2
09:09 63.7 °F 59.7 °F 29.71 in Calm   1.0 mph 87% 0.00 in 135.0 W/m2
09:14 63.9 °F 59.5 °F 29.71 in SSE 0.9 mph 3.0 mph 86% 0.00 in 137.0 W/m2
09:19 63.9 °F 59.5 °F 29.71 in Calm     86% 0.00 in 141.0 W/m2
09:24 64.0 °F 59.4 °F 29.71 in SSE 0.9 mph 4.0 mph 85% 0.00 in 153.0 W/m2
09:29 64.2 °F 59.9 °F 29.71 in Calm   2.0 mph 86% 0.00 in 174.0 W/m2
09:34 64.6 °F 60.3 °F 29.72 in Calm   3.0 mph 86% 0.00 in 183.0 W/m2
09:39 64.8 °F 60.8 °F 29.72 in Calm   1.0 mph 87% 0.00 in 197.0 W/m2
09:44 64.9 °F 60.6 °F 29.71 in Calm   1.0 mph 86% 0.00 in 220.0 W/m2
09:49 65.3 °F 61.3 °F 29.71 in SSE 0.9 mph 2.0 mph 87% 0.00 in 248.0 W/m2
09:55 65.7 °F 61.0 °F 29.71 in Calm   3.0 mph 85% 0.00 in 278.0 W/m2
10:00 66.0 °F 61.0 °F 29.71 in Calm   3.0 mph 84% 0.00 in 276.0 W/m2
10:05 66.4 °F 60.8 °F 29.71 in Calm   2.0 mph 82% 0.00 in 267.0 W/m2
10:10 66.7 °F 60.1 °F 29.71 in Calm   3.0 mph 79% 0.00 in 269.0 W/m2
10:15 67.1 °F 59.4 °F 29.71 in SSE 0.9 mph 6.0 mph 76% 0.00 in 297.0 W/m2
10:20 67.6 °F 59.7 °F 29.71 in Calm   4.0 mph 76% 0.00 in 327.0 W/m2
10:25 68.2 °F 58.8 °F 29.71 in East 0.9 mph 8.0 mph 72% 0.00 in 350.0 W/m2
10:30 68.7 °F 58.5 °F 29.71 in Calm   5.0 mph 70% 0.00 in 360.0 W/m2
10:35 69.4 °F 58.8 °F 29.71 in East 2.0 mph 6.0 mph 69% 0.00 in 341.0 W/m2
10:41 70.2 °F 59.5 °F 29.71 in Calm   7.0 mph 69% 0.00 in 316.0 W/m2
10:46 70.7 °F 59.2 °F 29.71 in NE 2.0 mph 4.0 mph 67% 0.00 in 301.0 W/m2
10:51 71.2 °F 60.1 °F 29.71 in SE 0.9 mph 3.0 mph 68% 0.00 in 316.0 W/m2
10:56 71.8 °F 60.6 °F 29.71 in ESE 0.9 mph 5.0 mph 68% 0.00 in 345.0 W/m2
11:01 72.1 °F 59.7 °F 29.71 in ENE 4.0 mph 8.0 mph 65% 0.00 in 374.0 W/m2
11:06 72.5 °F 59.5 °F 29.71 in NE 2.0 mph 7.0 mph 64% 0.00 in 446.0 W/m2
11:11 73.0 °F 59.7 °F 29.71 in ENE 0.9 mph 7.0 mph 63% 0.00 in 540.0 W/m2
11:16 73.8 °F 60.8 °F 29.71 in ENE 0.9 mph 2.0 mph 64% 0.00 in 656.0 W/m2
11:21 74.5 °F 59.2 °F 29.70 in NE 2.0 mph 4.0 mph 59% 0.00 in 779.0 W/m2
11:27 75.4 °F 59.0 °F 29.70 in NE 0.9 mph 2.0 mph 57% 0.00 in 1332.0 W/m2
11:32 76.5 °F 58.6 °F 29.70 in NNE 0.9 mph 4.0 mph 54% 0.00 in 540.0 W/m2
11:37 77.4 °F 57.2 °F 29.70 in Calm   6.0 mph 50% 0.00 in 608.0 W/m2
11:42 78.3 °F 55.8 °F 29.70 in Calm   4.0 mph 46% 0.00 in 675.0 W/m2
11:47 79.0 °F 57.0 °F 29.70 in SSE 0.9 mph 6.0 mph 47% 0.00 in 1257.0 W/m2
11:52 79.7 °F 55.9 °F 29.70 in SSE 2.0 mph 5.0 mph 44% 0.00 in 534.0 W/m2
11:57 80.1 °F 56.1 °F 29.70 in SSW 0.9 mph 2.0 mph 44% 0.00 in 719.0 W/m2
12:02 80.1 °F 54.9 °F 29.69 in North 2.9 mph 4.0 mph 42% 0.00 in 679.0 W/m2
12:07 80.4 °F 56.5 °F 29.69 in SE 2.0 mph 3.0 mph 44% 0.00 in 663.0 W/m2
12:13 80.4 °F 55.2 °F 29.69 in Calm   1.0 mph 42% 0.00 in 613.0 W/m2
12:18 80.4 °F 54.5 °F 29.69 in WSW 0.9 mph 2.0 mph 41% 0.00 in 717.0 W/m2
12:23 80.8 °F 54.9 °F 29.68 in WNW 0.9 mph 3.0 mph 41% 0.00 in 622.0 W/m2
12:28 81.0 °F 53.6 °F 29.68 in NW 2.0 mph 4.0 mph 39% 0.00 in 874.0 W/m2
12:33 81.1 °F 55.2 °F 29.68 in SW 2.0 mph 2.0 mph 41% 0.00 in 953.0 W/m2
12:38 81.3 °F 55.4 °F 29.68 in WSW 2.0 mph 3.0 mph 41% 0.00 in 904.0 W/m2
12:43 81.9 °F 53.8 °F 29.67 in NW 0.9 mph 5.0 mph 38% 0.00 in 889.0 W/m2
12:48 82.2 °F 54.1 °F 29.67 in NE 0.9 mph 3.0 mph 38% 0.00 in 1327.0 W/m2
12:53 82.8 °F 55.2 °F 29.67 in WSW 4.0 mph 5.0 mph 39% 0.00 in 1317.0 W/m2
12:58 83.5 °F 54.5 °F 29.66 in West 8.1 mph 8.1 mph 37% 0.00 in 1320.0 W/m2
13:04 82.9 °F 53.2 °F 29.66 in WSW 0.9 mph 6.0 mph 36% 0.00 in 1239.0 W/m2
13:09 82.4 °F 54.3 °F 29.66 in West 2.0 mph 8.0 mph 38% 0.00 in 1276.0 W/m2
13:14 82.2 °F 54.9 °F 29.66 in Calm   5.0 mph 39% 0.00 in 1288.0 W/m2
13:19 82.8 °F 55.2 °F 29.66 in NNW 4.0 mph 4.0 mph 39% 0.00 in 933.0 W/m2
13:24 83.1 °F 53.4 °F 29.66 in Calm   3.0 mph 36% 0.00 in 603.0 W/m2
13:29 83.7 °F 54.7 °F 29.66 in West 0.9 mph 5.0 mph 37% 0.00 in 601.0 W/m2
13:34 83.7 °F 54.0 °F 29.66 in NE 0.9 mph 4.0 mph 36% 0.00 in 515.0 W/m2
13:39 83.7 °F 54.7 °F 29.65 in NW 2.0 mph 3.0 mph 37% 0.00 in 499.0 W/m2
13:45 83.5 °F 54.5 °F 29.65 in SE 2.0 mph 4.0 mph 37% 0.00 in 445.0 W/m2
13:50 82.9 °F 54.7 °F 29.65 in West 0.9 mph 3.0 mph 38% 0.00 in 538.0 W/m2
13:55 82.2 °F 54.1 °F 29.65 in Calm   4.0 mph 38% 0.00 in 533.0 W/m2
14:00 82.0 °F 54.0 °F 29.64 in WSW 2.9 mph 7.0 mph 38% 0.00 in 452.0 W/m2
14:05 81.7 °F 54.3 °F 29.64 in Calm   2.0 mph 39% 0.00 in 666.0 W/m2
14:10 81.7 °F 54.3 °F 29.64 in West 0.9 mph 8.0 mph 39% 0.00 in 737.0 W/m2
14:15 82.0 °F 54.0 °F 29.64 in Calm   2.0 mph 38% 0.00 in 617.0 W/m2
14:20 82.6 °F 55.0 °F 29.64 in West 4.9 mph 10.0 mph 39% 0.00 in 1143.0 W/m2
14:25 82.8 °F 55.2 °F 29.64 in West 0.9 mph 6.0 mph 39% 0.00 in 1223.0 W/m2
14:30 83.3 °F 54.3 °F 29.63 in SW 2.9 mph 6.0 mph 37% 0.00 in 1035.0 W/m2
14:36 83.3 °F 54.3 °F 29.64 in SSW 4.9 mph 9.0 mph 37% 0.00 in 719.0 W/m2
14:41 83.3 °F 56.5 °F 29.64 in North 2.9 mph 6.0 mph 40% 0.00 in 599.0 W/m2
14:46 83.7 °F 56.1 °F 29.64 in Calm   4.0 mph 39% 0.00 in 306.0 W/m2
14:51 83.5 °F 55.2 °F 29.64 in NW 2.9 mph 7.0 mph 38% 0.00 in 264.0 W/m2
14:56 82.8 °F 55.2 °F 29.64 in SW 4.0 mph 5.0 mph 39% 0.00 in 221.0 W/m2
15:01 82.0 °F 55.4 °F 29.65 in ENE 4.0 mph 7.0 mph 40% 0.00 in 167.0 W/m2
15:06 80.1 °F 57.4 °F 29.65 in ENE 10.1 mph 18.0 mph 46% 0.00 in 141.0 W/m2
15:11 77.4 °F 58.3 °F 29.66 in East 2.0 mph 9.0 mph 52% 0.00 in 195.0 W/m2
15:16 75.9 °F 59.2 °F 29.65 in ENE 4.0 mph 10.0 mph 56% 0.00 in 241.0 W/m2
15:21 75.4 °F 58.6 °F 29.65 in NE 8.9 mph 15.0 mph 56% 0.00 in 838.0 W/m2
15:27 75.0 °F 58.8 °F 29.65 in ESE 6.0 mph 12.0 mph 57% 0.00 in 276.0 W/m2
15:32 75.0 °F 59.2 °F 29.65 in East 0.9 mph 13.0 mph 58% 0.00 in 230.0 W/m2
15:37 74.8 °F 58.6 °F 29.65 in ESE 6.9 mph 12.0 mph 57% 0.00 in 204.0 W/m2
15:42 74.5 °F 57.7 °F 29.65 in NE 6.9 mph 13.0 mph 56% 0.00 in 171.0 W/m2
15:47 73.8 °F 57.6 °F 29.65 in ENE 8.9 mph 9.0 mph 57% 0.00 in 149.0 W/m2
15:52 73.6 °F 57.4 °F 29.64 in ENE 4.9 mph 12.0 mph 57% 0.00 in 165.0 W/m2
15:57 73.6 °F 57.9 °F 29.64 in ENE 8.9 mph 12.0 mph 58% 0.00 in 199.0 W/m2
16:02 73.6 °F 58.3 °F 29.65 in NE 8.1 mph 12.0 mph 59% 0.00 in 322.0 W/m2
16:07 73.8 °F 57.0 °F 29.65 in ENE 8.1 mph 13.0 mph 56% 0.00 in 380.0 W/m2
16:13 73.9 °F 57.2 °F 29.65 in NNE 8.1 mph 12.0 mph 56% 0.00 in 376.0 W/m2
16:18 73.9 °F 57.7 °F 29.65 in ENE 8.1 mph 10.0 mph 57% 0.00 in 169.0 W/m2
16:23 73.9 °F 58.3 °F 29.65 in NE 8.1 mph 10.0 mph 58% 0.00 in 114.0 W/m2
16:28 73.8 °F 57.6 °F 29.64 in NE 6.0 mph 8.0 mph 57% 0.00 in 100.0 W/m2
16:33 73.8 °F 57.0 °F 29.64 in East 4.0 mph 14.0 mph 56% 0.00 in 111.0 W/m2
16:38 73.4 °F 56.7 °F 29.64 in ENE 4.0 mph 11.0 mph 56% 0.00 in 130.0 W/m2
16:43 73.0 °F 56.5 °F 29.64 in NE 4.0 mph 10.0 mph 56% 0.00 in 88.0 W/m2
16:49 72.9 °F 56.3 °F 29.65 in ENE 4.9 mph 7.0 mph 56% 0.00 in 77.0 W/m2
16:54 72.5 °F 56.5 °F 29.66 in SE 6.0 mph 6.0 mph 57% 0.00 in 60.0 W/m2
16:59 72.1 °F 56.5 °F 29.67 in SSE 8.1 mph 9.0 mph 58% 0.00 in 46.0 W/m2
17:05 71.6 °F 56.5 °F 29.67 in SSE 4.9 mph 9.0 mph 59% 0.00 in 40.0 W/m2
17:10 71.4 °F 58.1 °F 29.67 in SSW 2.0 mph 9.0 mph 63% 0.00 in 33.0 W/m2
17:15 71.4 °F 59.0 °F 29.67 in NE 0.9 mph 9.0 mph 65% 0.00 in 18.0 W/m2
17:20 71.1 °F 57.4 °F 29.67 in SSW 2.9 mph 7.0 mph 62% 0.00 in 7.0 W/m2
17:25 70.3 °F 58.5 °F 29.68 in SW 4.0 mph 9.0 mph 66% 0.00 in 5.0 W/m2
17:30 68.7 °F 59.4 °F 29.68 in SSW 2.0 mph 6.0 mph 72% 0.02 in 5.0 W/m2
17:35 67.3 °F 58.6 °F 29.67 in Calm     74% 0.05 in 5.0 W/m2
17:40 66.6 °F 59.5 °F 29.67 in Calm     78% 0.06 in 5.0 W/m2
17:46 65.8 °F 59.5 °F 29.67 in Calm     80% 0.07 in 5.0 W/m2
17:51 65.3 °F 59.7 °F 29.67 in North 2.0 mph 3.0 mph 82% 0.08 in 5.0 W/m2
17:56 64.8 °F 58.8 °F 29.67 in NNW 0.9 mph 2.0 mph 81% 0.09 in 5.0 W/m2
18:01 64.2 °F 59.4 °F 29.68 in Calm     84% 0.09 in 5.0 W/m2
18:06 64.0 °F 59.7 °F 29.68 in SSW 2.0 mph 3.0 mph 86% 0.09 in 5.0 W/m2
18:11 63.9 °F 59.5 °F 29.69 in Calm   5.0 mph 86% 0.10 in 5.0 W/m2
18:16 63.7 °F 59.7 °F 29.69 in Calm   2.0 mph 87% 0.11 in 5.0 W/m2
18:21 63.5 °F 59.9 °F 29.70 in Calm   1.0 mph 88% 0.12 in 0.0 W/m2
18:26 63.3 °F 59.7 °F 29.70 in Calm     88% 0.12 in 0.0 W/m2
18:31 63.3 °F 59.7 °F 29.70 in Calm     88% 0.12 in 0.0 W/m2
18:36 63.1 °F 59.9 °F 29.70 in Calm   1.0 mph 89% 0.09 in 0.0 W/m2
18:41 63.3 °F 60.3 °F 29.70 in Calm   2.0 mph 90% 0.09 in 0.0 W/m2
18:47 63.3 °F 60.6 °F 29.70 in SSW 0.9 mph 1.0 mph 91% 0.09 in 0.0 W/m2
18:52 63.3 °F 60.6 °F 29.71 in SW 0.9 mph 3.0 mph 91% 0.10 in 0.0 W/m2
18:57 63.5 °F 60.8 °F 29.72 in SSW 2.0 mph 5.0 mph 91% 0.10 in 0.0 W/m2
19:03 63.3 °F 60.6 °F 29.72 in SW 2.0 mph 4.0 mph 91% 0.12 in 0.0 W/m2
19:08 63.3 °F 60.6 °F 29.72 in SSW 0.9 mph 5.0 mph 91% 0.14 in 0.0 W/m2
19:13 63.1 °F 60.1 °F 29.72 in WSW 2.9 mph 4.0 mph 90% 0.15 in 0.0 W/m2
19:19 63.0 °F 60.3 °F 29.71 in WSW 2.9 mph 5.0 mph 91% 0.15 in 0.0 W/m2
19:24 62.8 °F 59.7 °F 29.70 in SW 4.9 mph 5.0 mph 90% 0.14 in 0.0 W/m2
19:29 62.4 °F 59.4 °F 29.70 in West 2.9 mph 10.0 mph 90% 0.14 in 0.0 W/m2
19:34 62.2 °F 59.5 °F 29.69 in WSW 2.0 mph 6.0 mph 91% 0.13 in 0.0 W/m2
19:39 62.1 °F 59.4 °F 29.69 in Calm   5.0 mph 91% 0.13 in 0.0 W/m2
19:44 62.1 °F 59.4 °F 29.70 in SW 2.0 mph 5.0 mph 91% 0.13 in 0.0 W/m2
19:49 62.1 °F 59.4 °F 29.69 in Calm   5.0 mph 91% 0.12 in 0.0 W/m2
19:54 62.1 °F 59.7 °F 29.68 in Calm   2.0 mph 92% 0.12 in 0.0 W/m2
20:00 62.1 °F 59.7 °F 29.68 in South 4.9 mph 6.0 mph 92% 0.11 in 0.0 W/m2
20:05 62.1 °F 59.7 °F 29.69 in SSE 2.9 mph 5.0 mph 92% 0.11 in 0.0 W/m2
20:10 61.9 °F 59.2 °F 29.68 in NNW 2.9 mph 5.0 mph 91% 0.08 in 0.0 W/m2
20:15 61.5 °F 58.8 °F 29.68 in Calm   3.0 mph 91% 0.07 in 0.0 W/m2
20:20 61.7 °F 59.4 °F 29.68 in Calm   3.0 mph 92% 0.06 in 0.0 W/m2
20:25 61.5 °F 59.2 °F 29.69 in Calm   1.0 mph 92% 0.06 in 0.0 W/m2
20:30 61.5 °F 59.2 °F 29.68 in Calm   1.0 mph 92% 0.06 in 0.0 W/m2
20:35 61.5 °F 59.2 °F 29.67 in Calm     92% 0.06 in 0.0 W/m2
20:40 61.5 °F 59.2 °F 29.68 in Calm   3.0 mph 92% 0.06 in 0.0 W/m2
20:45 61.5 °F 59.2 °F 29.68 in Calm     92% 0.05 in 0.0 W/m2
20:50 61.5 °F 59.2 °F 29.68 in Calm     92% 0.03 in 0.0 W/m2
20:55 61.5 °F 59.2 °F 29.68 in Calm     92% 0.03 in 0.0 W/m2
21:00 61.5 °F 59.5 °F 29.68 in NE 0.9 mph 3.0 mph 93% 0.02 in 0.0 W/m2
21:06 61.5 °F 59.5 °F 29.68 in Calm   3.0 mph 93% 0.01 in 0.0 W/m2
21:11 61.3 °F 59.0 °F 29.69 in NNE 2.0 mph 2.0 mph 92% 0.01 in 0.0 W/m2
21:16 61.3 °F 59.0 °F 29.69 in Calm   4.0 mph 92% 0.01 in 0.0 W/m2
21:21 61.3 °F 59.0 °F 29.69 in ENE 0.9 mph 3.0 mph 92% 0.01 in 0.0 W/m2
21:26 61.3 °F 59.4 °F 29.69 in NE 2.9 mph 4.0 mph 93% 0.01 in 0.0 W/m2
21:31 61.3 °F 59.4 °F 29.70 in NE 2.9 mph 3.0 mph 93% 0.01 in 0.0 W/m2
21:36 61.3 °F 59.4 °F 29.70 in Calm   5.0 mph 93% 0.01 in 0.0 W/m2
21:41 61.3 °F 59.4 °F 29.70 in Calm   3.0 mph 93% 0.01 in 0.0 W/m2
21:47 61.3 °F 59.4 °F 29.70 in Calm   3.0 mph 93% 0.01 in 0.0 W/m2
21:52 61.3 °F 59.4 °F 29.70 in ENE 0.9 mph 3.0 mph 93% 0.01 in 0.0 W/m2
21:57 61.2 °F 59.2 °F 29.70 in Calm   2.0 mph 93% 0.00 in 0.0 W/m2
22:02 61.2 °F 59.2 °F 29.70 in Calm   2.0 mph 93% 0.00 in 0.0 W/m2
22:07 61.2 °F 59.2 °F 29.71 in Calm   2.0 mph 93% 0.00 in 0.0 W/m2
22:12 61.2 °F 59.2 °F 29.71 in Calm   2.0 mph 93% 0.00 in 0.0 W/m2
22:17 61.2 °F 59.2 °F 29.71 in Calm   3.0 mph 93% 0.00 in 0.0 W/m2
22:22 61.2 °F 59.2 °F 29.71 in Calm   2.0 mph 93% 0.00 in 0.0 W/m2
22:28 61.0 °F 59.0 °F 29.71 in Calm     93% 0.00 in 0.0 W/m2
22:33 61.0 °F 59.0 °F 29.72 in Calm     93% 0.00 in 0.0 W/m2
22:38 60.8 °F 58.8 °F 29.72 in Calm     93% 0.00 in 0.0 W/m2
22:44 60.8 °F 58.8 °F 29.72 in Calm     93% 0.00 in 0.0 W/m2
22:50 60.6 °F 58.6 °F 29.72 in Calm     93% 0.00 in 0.0 W/m2
22:55 60.6 °F 58.6 °F 29.72 in Calm     93% 0.00 in 0.0 W/m2
23:00 60.6 °F 58.6 °F 29.72 in Calm     93% 0.00 in 0.0 W/m2
23:05 60.6 °F 58.6 °F 29.72 in Calm     93% 0.00 in 0.0 W/m2
23:10 60.6 °F 58.6 °F 29.72 in Calm   1.0 mph 93% 0.00 in 0.0 W/m2
23:16 60.6 °F 58.6 °F 29.72 in Calm     93% 0.00 in 0.0 W/m2
23:21 60.6 °F 58.6 °F 29.72 in Calm     93% 0.00 in 0.0 W/m2
23:26 60.6 °F 58.6 °F 29.73 in Calm   2.0 mph 93% 0.00 in 0.0 W/m2
23:31 60.6 °F 58.6 °F 29.73 in Calm     93% 0.00 in 0.0 W/m2
23:36 60.6 °F 58.6 °F 29.72 in Calm     93% 0.00 in 0.0 W/m2
23:42 60.6 °F 58.6 °F 29.73 in Calm     93% 0.00 in 0.0 W/m2
23:47 60.6 °F 58.6 °F 29.72 in Calm   1.0 mph 93% 0.00 in 0.0 W/m2
23:52 60.6 °F 58.6 °F 29.72 in Calm   2.0 mph 93% 0.00 in 0.0 W/m2
23:57 60.6 °F 58.6 °F 29.72 in Calm     93% 0.00 in 0.0 W/m2
Olympia, Windhoek, Namibia
Compliments of Weather Underground - 3.25 mb